sensor_id;sensor_type;location;lat;lon;timestamp;P1;durP1;ratioP1;P2;durP2;ratioP2
74170;SDS011;62526;50.948;6.590;2023-05-21T00:00:41;15.00;;;10.25;;
74170;SDS011;62526;50.948;6.590;2023-05-21T00:03:08;15.50;;;11.05;;
74170;SDS011;62526;50.948;6.590;2023-05-21T00:05:36;17.77;;;11.57;;
74170;SDS011;62526;50.948;6.590;2023-05-21T00:08:02;21.45;;;11.00;;
74170;SDS011;62526;50.948;6.590;2023-05-21T00:10:29;19.55;;;12.00;;
74170;SDS011;62526;50.948;6.590;2023-05-21T00:12:56;17.90;;;10.63;;
74170;SDS011;62526;50.948;6.590;2023-05-21T00:15:22;15.75;;;10.80;;
74170;SDS011;62526;50.948;6.590;2023-05-21T00:17:49;16.67;;;10.90;;
74170;SDS011;62526;50.948;6.590;2023-05-21T00:20:15;17.75;;;11.40;;
74170;SDS011;62526;50.948;6.590;2023-05-21T00:22:42;15.27;;;11.57;;
74170;SDS011;62526;50.948;6.590;2023-05-21T00:25:09;15.95;;;12.15;;
74170;SDS011;62526;50.948;6.590;2023-05-21T00:27:35;17.37;;;11.73;;
74170;SDS011;62526;50.948;6.590;2023-05-21T00:30:02;19.05;;;11.90;;
74170;SDS011;62526;50.948;6.590;2023-05-21T00:32:29;18.80;;;11.88;;
74170;SDS011;62526;50.948;6.590;2023-05-21T00:34:55;17.50;;;11.00;;
74170;SDS011;62526;50.948;6.590;2023-05-21T00:37:22;17.25;;;11.60;;
74170;SDS011;62526;50.948;6.590;2023-05-21T00:39:49;17.08;;;11.73;;
74170;SDS011;62526;50.948;6.590;2023-05-21T00:42:15;15.98;;;11.23;;
74170;SDS011;62526;50.948;6.590;2023-05-21T00:44:43;16.85;;;11.27;;
74170;SDS011;62526;50.948;6.590;2023-05-21T00:47:09;16.42;;;12.02;;
74170;SDS011;62526;50.948;6.590;2023-05-21T00:49:36;19.55;;;11.57;;
74170;SDS011;62526;50.948;6.590;2023-05-21T00:52:03;16.42;;;11.50;;
74170;SDS011;62526;50.948;6.590;2023-05-21T00:54:29;15.65;;;11.23;;
74170;SDS011;62526;50.948;6.590;2023-05-21T00:56:56;16.37;;;11.07;;
74170;SDS011;62526;50.948;6.590;2023-05-21T00:59:23;28.23;;;14.95;;
74170;SDS011;62526;50.948;6.590;2023-05-21T01:01:50;18.83;;;12.50;;
74170;SDS011;62526;50.948;6.590;2023-05-21T01:04:16;16.50;;;12.25;;
74170;SDS011;62526;50.948;6.590;2023-05-21T01:06:42;19.52;;;11.30;;
74170;SDS011;62526;50.948;6.590;2023-05-21T01:09:09;18.02;;;11.82;;
74170;SDS011;62526;50.948;6.590;2023-05-21T01:11:36;15.70;;;11.70;;
74170;SDS011;62526;50.948;6.590;2023-05-21T01:14:03;16.30;;;12.15;;
74170;SDS011;62526;50.948;6.590;2023-05-21T01:16:30;16.45;;;10.90;;
74170;SDS011;62526;50.948;6.590;2023-05-21T01:18:56;17.30;;;11.52;;
74170;SDS011;62526;50.948;6.590;2023-05-21T01:21:23;16.05;;;10.95;;
74170;SDS011;62526;50.948;6.590;2023-05-21T01:23:50;19.12;;;10.90;;
74170;SDS011;62526;50.948;6.590;2023-05-21T01:26:17;18.52;;;11.60;;
74170;SDS011;62526;50.948;6.590;2023-05-21T01:28:43;14.85;;;10.48;;
74170;SDS011;62526;50.948;6.590;2023-05-21T01:31:15;15.05;;;10.82;;
74170;SDS011;62526;50.948;6.590;2023-05-21T01:33:52;16.27;;;10.82;;
74170;SDS011;62526;50.948;6.590;2023-05-21T01:36:21;14.52;;;10.57;;
74170;SDS011;62526;50.948;6.590;2023-05-21T01:41:25;16.52;;;11.68;;
74170;SDS011;62526;50.948;6.590;2023-05-21T01:43:52;14.70;;;10.82;;
74170;SDS011;62526;50.948;6.590;2023-05-21T01:46:20;17.70;;;10.38;;
74170;SDS011;62526;50.948;6.590;2023-05-21T01:48:46;15.45;;;10.68;;
74170;SDS011;62526;50.948;6.590;2023-05-21T01:51:12;14.15;;;10.52;;
74170;SDS011;62526;50.948;6.590;2023-05-21T01:53:39;14.05;;;10.40;;
74170;SDS011;62526;50.948;6.590;2023-05-21T01:56:05;12.85;;;9.65;;
74170;SDS011;62526;50.948;6.590;2023-05-21T01:58:32;16.83;;;10.82;;
74170;SDS011;62526;50.948;6.590;2023-05-21T02:00:59;13.85;;;10.00;;
74170;SDS011;62526;50.948;6.590;2023-05-21T02:03:26;14.90;;;10.38;;
74170;SDS011;62526;50.948;6.590;2023-05-21T02:05:53;14.73;;;10.05;;
74170;SDS011;62526;50.948;6.590;2023-05-21T02:08:19;15.38;;;11.18;;
74170;SDS011;62526;50.948;6.590;2023-05-21T02:10:46;17.23;;;11.93;;
74170;SDS011;62526;50.948;6.590;2023-05-21T02:13:13;17.75;;;12.23;;
74170;SDS011;62526;50.948;6.590;2023-05-21T02:15:39;18.48;;;11.60;;
74170;SDS011;62526;50.948;6.590;2023-05-21T02:18:07;16.70;;;12.10;;
74170;SDS011;62526;50.948;6.590;2023-05-21T02:20:33;22.65;;;12.48;;
74170;SDS011;62526;50.948;6.590;2023-05-21T02:23:00;16.58;;;11.60;;
74170;SDS011;62526;50.948;6.590;2023-05-21T02:25:26;16.20;;;12.43;;
74170;SDS011;62526;50.948;6.590;2023-05-21T02:27:53;20.15;;;12.35;;
74170;SDS011;62526;50.948;6.590;2023-05-21T02:30:20;17.87;;;11.80;;
74170;SDS011;62526;50.948;6.590;2023-05-21T02:32:46;19.67;;;12.65;;
74170;SDS011;62526;50.948;6.590;2023-05-21T02:35:14;18.85;;;13.00;;
74170;SDS011;62526;50.948;6.590;2023-05-21T02:37:40;20.08;;;12.65;;
74170;SDS011;62526;50.948;6.590;2023-05-21T02:40:07;15.45;;;11.90;;
74170;SDS011;62526;50.948;6.590;2023-05-21T02:42:34;22.70;;;13.25;;
74170;SDS011;62526;50.948;6.590;2023-05-21T02:45:01;20.02;;;13.50;;
74170;SDS011;62526;50.948;6.590;2023-05-21T02:47:27;22.87;;;13.13;;
74170;SDS011;62526;50.948;6.590;2023-05-21T02:49:57;19.98;;;13.18;;
74170;SDS011;62526;50.948;6.590;2023-05-21T02:52:21;21.40;;;12.73;;
74170;SDS011;62526;50.948;6.590;2023-05-21T02:54:48;20.02;;;13.15;;
74170;SDS011;62526;50.948;6.590;2023-05-21T02:57:14;20.83;;;13.15;;
74170;SDS011;62526;50.948;6.590;2023-05-21T02:59:41;18.08;;;13.07;;
74170;SDS011;62526;50.948;6.590;2023-05-21T03:02:08;22.00;;;13.38;;
74170;SDS011;62526;50.948;6.590;2023-05-21T03:04:34;22.55;;;13.60;;
74170;SDS011;62526;50.948;6.590;2023-05-21T03:07:01;18.25;;;12.27;;
74170;SDS011;62526;50.948;6.590;2023-05-21T03:09:28;20.88;;;12.82;;
74170;SDS011;62526;50.948;6.590;2023-05-21T03:11:55;20.05;;;13.20;;
74170;SDS011;62526;50.948;6.590;2023-05-21T03:14:22;18.85;;;13.05;;
74170;SDS011;62526;50.948;6.590;2023-05-21T03:16:49;19.87;;;13.77;;
74170;SDS011;62526;50.948;6.590;2023-05-21T03:19:15;18.05;;;13.23;;
74170;SDS011;62526;50.948;6.590;2023-05-21T03:21:42;22.52;;;13.73;;
74170;SDS011;62526;50.948;6.590;2023-05-21T03:24:08;18.02;;;12.57;;
74170;SDS011;62526;50.948;6.590;2023-05-21T03:26:35;19.30;;;13.52;;
74170;SDS011;62526;50.948;6.590;2023-05-21T03:29:02;17.50;;;12.95;;
74170;SDS011;62526;50.948;6.590;2023-05-21T03:31:28;19.20;;;12.07;;
74170;SDS011;62526;50.948;6.590;2023-05-21T03:33:56;20.08;;;12.98;;
74170;SDS011;62526;50.948;6.590;2023-05-21T03:36:22;18.85;;;12.73;;
74170;SDS011;62526;50.948;6.590;2023-05-21T03:38:49;24.17;;;13.10;;
74170;SDS011;62526;50.948;6.590;2023-05-21T03:41:15;18.30;;;12.07;;
74170;SDS011;62526;50.948;6.590;2023-05-21T03:43:42;20.12;;;12.50;;
74170;SDS011;62526;50.948;6.590;2023-05-21T03:46:09;18.02;;;12.18;;
74170;SDS011;62526;50.948;6.590;2023-05-21T03:48:35;18.27;;;12.98;;
74170;SDS011;62526;50.948;6.590;2023-05-21T03:51:02;17.77;;;12.35;;
74170;SDS011;62526;50.948;6.590;2023-05-21T03:53:28;17.33;;;12.37;;
74170;SDS011;62526;50.948;6.590;2023-05-21T03:55:55;18.20;;;12.90;;
74170;SDS011;62526;50.948;6.590;2023-05-21T03:58:22;20.50;;;12.90;;
74170;SDS011;62526;50.948;6.590;2023-05-21T04:00:48;19.73;;;12.43;;
74170;SDS011;62526;50.948;6.590;2023-05-21T04:03:15;22.95;;;12.75;;
74170;SDS011;62526;50.948;6.590;2023-05-21T04:05:42;21.23;;;13.32;;
74170;SDS011;62526;50.948;6.590;2023-05-21T04:08:08;16.37;;;11.63;;
74170;SDS011;62526;50.948;6.590;2023-05-21T04:10:35;19.23;;;11.32;;
74170;SDS011;62526;50.948;6.590;2023-05-21T04:13:01;17.90;;;12.35;;
74170;SDS011;62526;50.948;6.590;2023-05-21T04:15:28;18.40;;;12.60;;
74170;SDS011;62526;50.948;6.590;2023-05-21T04:17:55;18.43;;;11.63;;
74170;SDS011;62526;50.948;6.590;2023-05-21T04:20:21;17.35;;;11.93;;
74170;SDS011;62526;50.948;6.590;2023-05-21T04:22:48;19.58;;;11.50;;
74170;SDS011;62526;50.948;6.590;2023-05-21T04:25:14;19.42;;;11.35;;
74170;SDS011;62526;50.948;6.590;2023-05-21T04:27:41;16.67;;;11.63;;
74170;SDS011;62526;50.948;6.590;2023-05-21T04:30:08;17.85;;;10.80;;
74170;SDS011;62526;50.948;6.590;2023-05-21T04:32:34;18.48;;;11.48;;
74170;SDS011;62526;50.948;6.590;2023-05-21T04:35:01;16.20;;;10.75;;
74170;SDS011;62526;50.948;6.590;2023-05-21T04:37:28;17.62;;;10.40;;
74170;SDS011;62526;50.948;6.590;2023-05-21T04:39:54;16.67;;;10.32;;
74170;SDS011;62526;50.948;6.590;2023-05-21T04:42:21;14.38;;;11.07;;
74170;SDS011;62526;50.948;6.590;2023-05-21T04:44:49;20.15;;;11.23;;
74170;SDS011;62526;50.948;6.590;2023-05-21T04:47:15;13.23;;;9.55;;
74170;SDS011;62526;50.948;6.590;2023-05-21T04:49:42;16.42;;;10.23;;
74170;SDS011;62526;50.948;6.590;2023-05-21T04:52:09;15.52;;;10.05;;
74170;SDS011;62526;50.948;6.590;2023-05-21T04:54:35;14.30;;;10.05;;
74170;SDS011;62526;50.948;6.590;2023-05-21T04:57:02;16.65;;;10.05;;
74170;SDS011;62526;50.948;6.590;2023-05-21T04:59:28;12.50;;;9.27;;
74170;SDS011;62526;50.948;6.590;2023-05-21T05:01:57;14.05;;;9.80;;
74170;SDS011;62526;50.948;6.590;2023-05-21T05:04:23;14.02;;;9.52;;
74170;SDS011;62526;50.948;6.590;2023-05-21T05:06:50;15.55;;;9.95;;
74170;SDS011;62526;50.948;6.590;2023-05-21T05:09:17;18.27;;;10.07;;
74170;SDS011;62526;50.948;6.590;2023-05-21T05:11:43;14.55;;;9.73;;
74170;SDS011;62526;50.948;6.590;2023-05-21T05:14:10;14.95;;;9.60;;
74170;SDS011;62526;50.948;6.590;2023-05-21T05:16:37;16.50;;;10.18;;
74170;SDS011;62526;50.948;6.590;2023-05-21T05:19:03;13.43;;;9.38;;
74170;SDS011;62526;50.948;6.590;2023-05-21T05:21:30;14.23;;;9.27;;
74170;SDS011;62526;50.948;6.590;2023-05-21T05:23:56;16.30;;;9.57;;
74170;SDS011;62526;50.948;6.590;2023-05-21T05:26:23;14.05;;;9.25;;
74170;SDS011;62526;50.948;6.590;2023-05-21T05:28:50;11.77;;;9.20;;
74170;SDS011;62526;50.948;6.590;2023-05-21T05:31:17;12.60;;;9.25;;
74170;SDS011;62526;50.948;6.590;2023-05-21T05:36:28;14.35;;;8.82;;
74170;SDS011;62526;50.948;6.590;2023-05-21T05:38:54;11.07;;;8.45;;
74170;SDS011;62526;50.948;6.590;2023-05-21T05:41:21;11.60;;;8.57;;
74170;SDS011;62526;50.948;6.590;2023-05-21T05:43:48;11.63;;;8.07;;
74170;SDS011;62526;50.948;6.590;2023-05-21T05:46:14;13.80;;;9.25;;
74170;SDS011;62526;50.948;6.590;2023-05-21T05:48:41;13.10;;;8.25;;
74170;SDS011;62526;50.948;6.590;2023-05-21T05:51:07;12.32;;;8.70;;
74170;SDS011;62526;50.948;6.590;2023-05-21T05:53:34;13.85;;;8.80;;
74170;SDS011;62526;50.948;6.590;2023-05-21T05:56:01;12.05;;;8.27;;
74170;SDS011;62526;50.948;6.590;2023-05-21T05:58:28;13.15;;;8.90;;
74170;SDS011;62526;50.948;6.590;2023-05-21T06:00:54;11.02;;;8.68;;
74170;SDS011;62526;50.948;6.590;2023-05-21T06:03:20;10.98;;;8.27;;
74170;SDS011;62526;50.948;6.590;2023-05-21T06:05:47;11.63;;;8.43;;
74170;SDS011;62526;50.948;6.590;2023-05-21T06:08:14;11.98;;;8.30;;
74170;SDS011;62526;50.948;6.590;2023-05-21T06:10:40;11.38;;;7.75;;
74170;SDS011;62526;50.948;6.590;2023-05-21T06:13:07;11.93;;;8.60;;
74170;SDS011;62526;50.948;6.590;2023-05-21T06:15:33;12.82;;;8.27;;
74170;SDS011;62526;50.948;6.590;2023-05-21T06:18:00;12.35;;;8.85;;
74170;SDS011;62526;50.948;6.590;2023-05-21T06:20:27;13.38;;;9.00;;
74170;SDS011;62526;50.948;6.590;2023-05-21T06:22:54;12.77;;;8.57;;
74170;SDS011;62526;50.948;6.590;2023-05-21T06:25:21;15.88;;;9.73;;
74170;SDS011;62526;50.948;6.590;2023-05-21T06:27:47;11.60;;;8.60;;
74170;SDS011;62526;50.948;6.590;2023-05-21T06:30:14;13.77;;;9.13;;
74170;SDS011;62526;50.948;6.590;2023-05-21T06:32:41;14.35;;;8.85;;
74170;SDS011;62526;50.948;6.590;2023-05-21T06:35:07;12.32;;;7.95;;
74170;SDS011;62526;50.948;6.590;2023-05-21T06:37:34;13.88;;;9.35;;
74170;SDS011;62526;50.948;6.590;2023-05-21T06:40:01;15.05;;;8.98;;
74170;SDS011;62526;50.948;6.590;2023-05-21T06:42:27;12.18;;;9.15;;
74170;SDS011;62526;50.948;6.590;2023-05-21T06:44:54;14.65;;;9.07;;
74170;SDS011;62526;50.948;6.590;2023-05-21T06:47:20;10.40;;;8.88;;
74170;SDS011;62526;50.948;6.590;2023-05-21T06:49:47;17.25;;;8.95;;
74170;SDS011;62526;50.948;6.590;2023-05-21T06:52:13;17.77;;;10.02;;
74170;SDS011;62526;50.948;6.590;2023-05-21T06:54:40;11.88;;;9.07;;
74170;SDS011;62526;50.948;6.590;2023-05-21T06:57:07;17.95;;;9.43;;
74170;SDS011;62526;50.948;6.590;2023-05-21T06:59:33;13.35;;;9.27;;
74170;SDS011;62526;50.948;6.590;2023-05-21T07:02:00;13.05;;;8.95;;
74170;SDS011;62526;50.948;6.590;2023-05-21T07:04:26;14.57;;;9.00;;
74170;SDS011;62526;50.948;6.590;2023-05-21T07:06:53;13.62;;;9.05;;
74170;SDS011;62526;50.948;6.590;2023-05-21T07:09:20;15.32;;;9.63;;
74170;SDS011;62526;50.948;6.590;2023-05-21T07:11:47;12.52;;;9.65;;
74170;SDS011;62526;50.948;6.590;2023-05-21T07:14:14;16.20;;;9.25;;
74170;SDS011;62526;50.948;6.590;2023-05-21T07:16:40;13.00;;;8.80;;
74170;SDS011;62526;50.948;6.590;2023-05-21T07:19:07;13.52;;;9.95;;
74170;SDS011;62526;50.948;6.590;2023-05-21T07:21:33;15.25;;;9.68;;
74170;SDS011;62526;50.948;6.590;2023-05-21T07:24:00;13.20;;;9.13;;
74170;SDS011;62526;50.948;6.590;2023-05-21T07:26:27;15.60;;;9.75;;
74170;SDS011;62526;50.948;6.590;2023-05-21T07:28:53;14.13;;;9.88;;
74170;SDS011;62526;50.948;6.590;2023-05-21T07:31:20;10.77;;;9.15;;
74170;SDS011;62526;50.948;6.590;2023-05-21T07:33:46;15.40;;;9.52;;
74170;SDS011;62526;50.948;6.590;2023-05-21T07:36:14;12.85;;;9.70;;
74170;SDS011;62526;50.948;6.590;2023-05-21T07:38:42;12.25;;;9.20;;
74170;SDS011;62526;50.948;6.590;2023-05-21T07:41:08;12.57;;;9.23;;
74170;SDS011;62526;50.948;6.590;2023-05-21T07:43:35;13.55;;;8.70;;
74170;SDS011;62526;50.948;6.590;2023-05-21T07:46:01;11.73;;;8.32;;
74170;SDS011;62526;50.948;6.590;2023-05-21T07:48:28;13.20;;;8.43;;
74170;SDS011;62526;50.948;6.590;2023-05-21T07:50:54;9.90;;;8.38;;
74170;SDS011;62526;50.948;6.590;2023-05-21T07:53:21;11.10;;;8.35;;
74170;SDS011;62526;50.948;6.590;2023-05-21T07:55:49;12.50;;;9.07;;
74170;SDS011;62526;50.948;6.590;2023-05-21T07:58:16;13.18;;;9.25;;
74170;SDS011;62526;50.948;6.590;2023-05-21T08:00:43;11.10;;;9.35;;
74170;SDS011;62526;50.948;6.590;2023-05-21T08:03:10;12.95;;;8.90;;
74170;SDS011;62526;50.948;6.590;2023-05-21T08:05:36;12.43;;;9.23;;
74170;SDS011;62526;50.948;6.590;2023-05-21T08:08:03;13.70;;;9.70;;
74170;SDS011;62526;50.948;6.590;2023-05-21T08:10:30;11.52;;;8.88;;
74170;SDS011;62526;50.948;6.590;2023-05-21T08:12:57;12.32;;;9.07;;
74170;SDS011;62526;50.948;6.590;2023-05-21T08:15:23;14.68;;;10.18;;
74170;SDS011;62526;50.948;6.590;2023-05-21T08:17:50;12.45;;;9.55;;
74170;SDS011;62526;50.948;6.590;2023-05-21T08:20:17;12.65;;;9.68;;
74170;SDS011;62526;50.948;6.590;2023-05-21T08:22:44;11.07;;;9.30;;
74170;SDS011;62526;50.948;6.590;2023-05-21T08:25:11;13.00;;;9.80;;
74170;SDS011;62526;50.948;6.590;2023-05-21T08:27:37;11.07;;;9.40;;
74170;SDS011;62526;50.948;6.590;2023-05-21T08:30:04;15.25;;;9.82;;
74170;SDS011;62526;50.948;6.590;2023-05-21T08:32:32;14.57;;;9.80;;
74170;SDS011;62526;50.948;6.590;2023-05-21T08:34:59;13.43;;;9.93;;
74170;SDS011;62526;50.948;6.590;2023-05-21T08:37:26;15.98;;;9.32;;
74170;SDS011;62526;50.948;6.590;2023-05-21T08:39:52;15.35;;;9.77;;
74170;SDS011;62526;50.948;6.590;2023-05-21T08:42:33;12.15;;;9.45;;
74170;SDS011;62526;50.948;6.590;2023-05-21T08:45:05;12.45;;;9.07;;
74170;SDS011;62526;50.948;6.590;2023-05-21T08:47:33;16.12;;;10.05;;
74170;SDS011;62526;50.948;6.590;2023-05-21T08:50:00;14.73;;;10.13;;
74170;SDS011;62526;50.948;6.590;2023-05-21T08:52:26;14.80;;;10.40;;
74170;SDS011;62526;50.948;6.590;2023-05-21T08:54:53;14.00;;;10.60;;
74170;SDS011;62526;50.948;6.590;2023-05-21T08:57:19;13.93;;;10.45;;
74170;SDS011;62526;50.948;6.590;2023-05-21T08:59:46;13.45;;;10.85;;
74170;SDS011;62526;50.948;6.590;2023-05-21T09:02:13;14.70;;;11.38;;
74170;SDS011;62526;50.948;6.590;2023-05-21T09:04:39;15.02;;;10.27;;
74170;SDS011;62526;50.948;6.590;2023-05-21T09:07:06;14.02;;;10.70;;
74170;SDS011;62526;50.948;6.590;2023-05-21T09:09:33;15.50;;;10.43;;
74170;SDS011;62526;50.948;6.590;2023-05-21T09:11:59;14.00;;;10.43;;
74170;SDS011;62526;50.948;6.590;2023-05-21T09:14:26;13.85;;;9.40;;
74170;SDS011;62526;50.948;6.590;2023-05-21T09:16:52;13.10;;;10.45;;
74170;SDS011;62526;50.948;6.590;2023-05-21T09:19:19;13.50;;;9.90;;
74170;SDS011;62526;50.948;6.590;2023-05-21T09:21:45;12.90;;;10.52;;
74170;SDS011;62526;50.948;6.590;2023-05-21T09:24:12;16.48;;;10.27;;
74170;SDS011;62526;50.948;6.590;2023-05-21T09:26:42;23.55;;;12.15;;
74170;SDS011;62526;50.948;6.590;2023-05-21T09:29:08;14.98;;;10.68;;
74170;SDS011;62526;50.948;6.590;2023-05-21T09:31:35;13.25;;;10.38;;
74170;SDS011;62526;50.948;6.590;2023-05-21T09:34:01;14.20;;;10.75;;
74170;SDS011;62526;50.948;6.590;2023-05-21T09:36:28;17.05;;;11.12;;
74170;SDS011;62526;50.948;6.590;2023-05-21T09:38:55;15.57;;;11.05;;
74170;SDS011;62526;50.948;6.590;2023-05-21T09:41:29;13.75;;;10.57;;
74170;SDS011;62526;50.948;6.590;2023-05-21T09:43:48;14.05;;;10.57;;
74170;SDS011;62526;50.948;6.590;2023-05-21T09:46:14;16.67;;;11.60;;
74170;SDS011;62526;50.948;6.590;2023-05-21T09:48:41;15.38;;;10.93;;
74170;SDS011;62526;50.948;6.590;2023-05-21T09:51:09;17.58;;;10.65;;
74170;SDS011;62526;50.948;6.590;2023-05-21T09:53:35;15.82;;;11.35;;
74170;SDS011;62526;50.948;6.590;2023-05-21T09:56:02;15.55;;;10.98;;
74170;SDS011;62526;50.948;6.590;2023-05-21T09:58:28;14.27;;;11.02;;
74170;SDS011;62526;50.948;6.590;2023-05-21T10:00:55;14.60;;;10.82;;
74170;SDS011;62526;50.948;6.590;2023-05-21T10:03:22;12.82;;;10.18;;
74170;SDS011;62526;50.948;6.590;2023-05-21T10:05:48;12.73;;;9.82;;
74170;SDS011;62526;50.948;6.590;2023-05-21T10:08:16;13.18;;;10.52;;
74170;SDS011;62526;50.948;6.590;2023-05-21T10:10:42;15.45;;;10.05;;
74170;SDS011;62526;50.948;6.590;2023-05-21T10:13:09;12.25;;;10.02;;
74170;SDS011;62526;50.948;6.590;2023-05-21T10:15:38;17.10;;;11.38;;
74170;SDS011;62526;50.948;6.590;2023-05-21T10:18:04;15.57;;;10.70;;
74170;SDS011;62526;50.948;6.590;2023-05-21T10:20:30;17.48;;;11.18;;
74170;SDS011;62526;50.948;6.590;2023-05-21T10:22:57;15.35;;;10.98;;
74170;SDS011;62526;50.948;6.590;2023-05-21T10:25:24;12.30;;;10.05;;
74170;SDS011;62526;50.948;6.590;2023-05-21T10:27:50;13.82;;;10.80;;
74170;SDS011;62526;50.948;6.590;2023-05-21T10:30:17;55.65;;;13.30;;
74170;SDS011;62526;50.948;6.590;2023-05-21T10:32:43;15.65;;;11.02;;
74170;SDS011;62526;50.948;6.590;2023-05-21T10:35:11;22.87;;;20.00;;
74170;SDS011;62526;50.948;6.590;2023-05-21T10:37:37;15.05;;;11.77;;
74170;SDS011;62526;50.948;6.590;2023-05-21T10:40:04;16.25;;;11.32;;
74170;SDS011;62526;50.948;6.590;2023-05-21T10:42:45;23.50;;;19.45;;
74170;SDS011;62526;50.948;6.590;2023-05-21T10:45:22;12.60;;;10.55;;
74170;SDS011;62526;50.948;6.590;2023-05-21T10:47:52;14.57;;;11.70;;
74170;SDS011;62526;50.948;6.590;2023-05-21T10:55:58;15.32;;;11.50;;
74170;SDS011;62526;50.948;6.590;2023-05-21T10:58:35;16.52;;;11.73;;
74170;SDS011;62526;50.948;6.590;2023-05-21T11:00:58;15.10;;;11.20;;
74170;SDS011;62526;50.948;6.590;2023-05-21T11:03:24;16.70;;;11.85;;
74170;SDS011;62526;50.948;6.590;2023-05-21T11:05:51;17.00;;;12.60;;
74170;SDS011;62526;50.948;6.590;2023-05-21T11:08:20;17.05;;;11.73;;
74170;SDS011;62526;50.948;6.590;2023-05-21T11:10:50;19.45;;;10.98;;
74170;SDS011;62526;50.948;6.590;2023-05-21T11:13:21;16.08;;;11.70;;
74170;SDS011;62526;50.948;6.590;2023-05-21T11:19:05;16.25;;;11.20;;
74170;SDS011;62526;50.948;6.590;2023-05-21T11:21:22;16.23;;;11.68;;
74170;SDS011;62526;50.948;6.590;2023-05-21T11:23:52;12.88;;;10.68;;
74170;SDS011;62526;50.948;6.590;2023-05-21T11:26:19;19.65;;;12.25;;
74170;SDS011;62526;50.948;6.590;2023-05-21T11:28:45;15.25;;;11.77;;
74170;SDS011;62526;50.948;6.590;2023-05-21T11:33:46;16.10;;;11.70;;
74170;SDS011;62526;50.948;6.590;2023-05-21T11:36:14;18.48;;;11.85;;
74170;SDS011;62526;50.948;6.590;2023-05-21T11:38:41;14.10;;;11.27;;
74170;SDS011;62526;50.948;6.590;2023-05-21T11:41:08;14.75;;;10.57;;
74170;SDS011;62526;50.948;6.590;2023-05-21T11:43:38;18.15;;;12.75;;
74170;SDS011;62526;50.948;6.590;2023-05-21T11:46:01;16.98;;;12.73;;
74170;SDS011;62526;50.948;6.590;2023-05-21T11:48:27;15.88;;;11.93;;
74170;SDS011;62526;50.948;6.590;2023-05-21T11:50:54;15.60;;;12.52;;
74170;SDS011;62526;50.948;6.590;2023-05-21T11:53:21;16.05;;;12.27;;
74170;SDS011;62526;50.948;6.590;2023-05-21T11:55:47;17.12;;;12.43;;
74170;SDS011;62526;50.948;6.590;2023-05-21T11:58:14;16.27;;;12.93;;
74170;SDS011;62526;50.948;6.590;2023-05-21T12:00:41;14.50;;;12.37;;
74170;SDS011;62526;50.948;6.590;2023-05-21T12:03:07;16.12;;;12.00;;
74170;SDS011;62526;50.948;6.590;2023-05-21T12:08:10;20.67;;;12.70;;
74170;SDS011;62526;50.948;6.590;2023-05-21T12:10:37;16.40;;;11.30;;
74170;SDS011;62526;50.948;6.590;2023-05-21T12:13:04;13.60;;;11.27;;
74170;SDS011;62526;50.948;6.590;2023-05-21T12:15:31;15.02;;;12.85;;
74170;SDS011;62526;50.948;6.590;2023-05-21T12:17:57;14.48;;;11.18;;
74170;SDS011;62526;50.948;6.590;2023-05-21T12:20:25;15.40;;;13.15;;
74170;SDS011;62526;50.948;6.590;2023-05-21T12:22:51;14.40;;;12.30;;
74170;SDS011;62526;50.948;6.590;2023-05-21T12:25:18;16.55;;;12.68;;
74170;SDS011;62526;50.948;6.590;2023-05-21T12:27:45;14.48;;;12.07;;
74170;SDS011;62526;50.948;6.590;2023-05-21T12:30:11;19.62;;;13.05;;
74170;SDS011;62526;50.948;6.590;2023-05-21T12:32:39;14.63;;;11.43;;
74170;SDS011;62526;50.948;6.590;2023-05-21T12:35:05;13.75;;;11.52;;
74170;SDS011;62526;50.948;6.590;2023-05-21T12:37:32;18.33;;;12.23;;
74170;SDS011;62526;50.948;6.590;2023-05-21T12:39:59;18.30;;;12.05;;
74170;SDS011;62526;50.948;6.590;2023-05-21T12:42:27;17.12;;;12.55;;
74170;SDS011;62526;50.948;6.590;2023-05-21T12:44:53;14.82;;;12.10;;
74170;SDS011;62526;50.948;6.590;2023-05-21T12:47:21;18.23;;;13.02;;
74170;SDS011;62526;50.948;6.590;2023-05-21T12:49:48;13.73;;;11.55;;
74170;SDS011;62526;50.948;6.590;2023-05-21T12:52:17;18.80;;;12.95;;
74170;SDS011;62526;50.948;6.590;2023-05-21T12:54:42;16.58;;;12.45;;
74170;SDS011;62526;50.948;6.590;2023-05-21T12:57:09;17.30;;;12.88;;
74170;SDS011;62526;50.948;6.590;2023-05-21T13:02:12;15.10;;;12.50;;
74170;SDS011;62526;50.948;6.590;2023-05-21T13:04:35;15.88;;;12.37;;
74170;SDS011;62526;50.948;6.590;2023-05-21T13:07:02;15.77;;;11.88;;
74170;SDS011;62526;50.948;6.590;2023-05-21T13:09:28;13.55;;;10.65;;
74170;SDS011;62526;50.948;6.590;2023-05-21T13:11:55;17.85;;;12.57;;
74170;SDS011;62526;50.948;6.590;2023-05-21T13:14:22;16.65;;;12.43;;
74170;SDS011;62526;50.948;6.590;2023-05-21T13:16:48;15.05;;;11.50;;
74170;SDS011;62526;50.948;6.590;2023-05-21T13:19:15;15.18;;;11.75;;
74170;SDS011;62526;50.948;6.590;2023-05-21T13:21:42;14.93;;;11.27;;
74170;SDS011;62526;50.948;6.590;2023-05-21T13:24:09;15.05;;;11.82;;
74170;SDS011;62526;50.948;6.590;2023-05-21T13:26:35;14.02;;;11.55;;
74170;SDS011;62526;50.948;6.590;2023-05-21T13:29:02;12.93;;;11.25;;
74170;SDS011;62526;50.948;6.590;2023-05-21T13:31:29;16.73;;;12.18;;
74170;SDS011;62526;50.948;6.590;2023-05-21T13:33:55;13.98;;;12.07;;
74170;SDS011;62526;50.948;6.590;2023-05-21T13:36:22;13.10;;;11.23;;
74170;SDS011;62526;50.948;6.590;2023-05-21T13:38:48;14.10;;;11.85;;
74170;SDS011;62526;50.948;6.590;2023-05-21T13:41:15;13.73;;;11.75;;
74170;SDS011;62526;50.948;6.590;2023-05-21T13:43:42;14.65;;;11.27;;
74170;SDS011;62526;50.948;6.590;2023-05-21T13:46:09;13.85;;;11.65;;
74170;SDS011;62526;50.948;6.590;2023-05-21T13:48:35;14.40;;;12.10;;
74170;SDS011;62526;50.948;6.590;2023-05-21T13:51:02;14.27;;;11.95;;
74170;SDS011;62526;50.948;6.590;2023-05-21T13:53:29;16.12;;;12.25;;
74170;SDS011;62526;50.948;6.590;2023-05-21T13:55:55;12.80;;;11.00;;
74170;SDS011;62526;50.948;6.590;2023-05-21T13:58:22;13.93;;;11.27;;
74170;SDS011;62526;50.948;6.590;2023-05-21T14:00:49;14.02;;;10.82;;
74170;SDS011;62526;50.948;6.590;2023-05-21T14:03:15;13.18;;;10.32;;
74170;SDS011;62526;50.948;6.590;2023-05-21T14:05:42;15.07;;;11.55;;
74170;SDS011;62526;50.948;6.590;2023-05-21T14:08:08;13.62;;;11.25;;
74170;SDS011;62526;50.948;6.590;2023-05-21T14:10:35;17.23;;;11.30;;
74170;SDS011;62526;50.948;6.590;2023-05-21T14:13:02;14.98;;;10.77;;
74170;SDS011;62526;50.948;6.590;2023-05-21T14:15:28;15.02;;;11.27;;
74170;SDS011;62526;50.948;6.590;2023-05-21T14:17:55;13.62;;;10.75;;
74170;SDS011;62526;50.948;6.590;2023-05-21T14:20:21;13.00;;;10.93;;
74170;SDS011;62526;50.948;6.590;2023-05-21T14:22:48;14.23;;;10.85;;
74170;SDS011;62526;50.948;6.590;2023-05-21T14:25:15;13.70;;;11.30;;
74170;SDS011;62526;50.948;6.590;2023-05-21T14:27:42;14.75;;;11.30;;
74170;SDS011;62526;50.948;6.590;2023-05-21T14:30:09;16.15;;;11.27;;
74170;SDS011;62526;50.948;6.590;2023-05-21T14:32:36;14.00;;;10.88;;
74170;SDS011;62526;50.948;6.590;2023-05-21T14:35:02;14.23;;;11.02;;
74170;SDS011;62526;50.948;6.590;2023-05-21T14:37:29;12.50;;;10.43;;
74170;SDS011;62526;50.948;6.590;2023-05-21T14:39:56;10.32;;;8.85;;
74170;SDS011;62526;50.948;6.590;2023-05-21T14:42:22;11.70;;;10.50;;
74170;SDS011;62526;50.948;6.590;2023-05-21T14:44:49;15.00;;;9.95;;